Twr-841 — NAVY841 — position and weather

sailwx.info

Track history (hours):
 
Tides and Currents Weather Stations Pressure Air Temp Water Temp Dewpoint Dewpoint Depression Visibility Wind Speed Wind Dir Waves Ship Positions

Twr-841

Last reported at 2017-Nov-02 21:40 UTC. Time now 2017-Nov-17 19:56 UTC.
Position N 41°10' W 072°28'.
Warning: this ship's position is 14 days out of date.

Length 39 m.

Type: Military. MMSI: 369970385.

Date/timePositionNaut miles runAvg speedWind from/ knotsBaromVisibWave heightAir tempDewpointWater temp
2017-Nov-02 21:40N 41°10' W 072°28'3 3.0
2017-Nov-02 20:38N 41°09' W 072°32'1 3.6
2017-Nov-02 20:27N 41°09' W 072°33'2 3.8
2017-Nov-02 19:56N 41°09' W 072°36'1 0.1
2017-Nov-01 21:59N 41°08' W 072°38'2 4.3
2017-Nov-01 21:27N 41°09' W 072°35'2 4.2
2017-Nov-01 21:00N 41°10' W 072°32'2 4.0
2017-Nov-01 20:30N 41°10' W 072°30'2 4.2
2017-Nov-01 20:00N 41°11' W 072°27'2 3.2
2017-Nov-01 19:28N 41°11' W 072°25'2 3.4
2017-Nov-01 19:00N 41°12' W 072°23'  
Track history (hours):
 
Tides and Currents Weather Stations Pressure Air Temp Water Temp Dewpoint Dewpoint Depression Visibility Wind Speed Wind Dir Waves Ship Positions

Twr-841

Last reported at 2017-Nov-02 21:40 UTC. Time now 2017-Nov-17 19:56 UTC.
Position N 41°10' W 072°28'.
Warning: this ship's position is 14 days out of date.

Length 39 m.

Type: Military. MMSI: 369970385.

Date/timePositionNaut miles runAvg speedWind from/ knotsBaromVisibWave heightAir tempDewpointWater temp
2017-Nov-02 21:40N 41°10' W 072°28'3 3.0
2017-Nov-02 20:38N 41°09' W 072°32'1 3.6
2017-Nov-02 20:27N 41°09' W 072°33'2 3.8
2017-Nov-02 19:56N 41°09' W 072°36'1 0.1
2017-Nov-01 21:59N 41°08' W 072°38'2 4.3
2017-Nov-01 21:27N 41°09' W 072°35'2 4.2
2017-Nov-01 21:00N 41°10' W 072°32'2 4.0
2017-Nov-01 20:30N 41°10' W 072°30'2 4.2
2017-Nov-01 20:00N 41°11' W 072°27'2 3.2
2017-Nov-01 19:28N 41°11' W 072°25'2 3.4
2017-Nov-01 19:00N 41°12' W 072°23'  

Dump ship's entire track history